Data for 12/16/2012

Time Sea-Level Adjusted Pressure Absolute Pressure Temperature Relative Humidity Dew Point Precipitation   
(mb) (inHg) (mb) (inHg) (C) (F) (%) (C) (F) (mm) (in)
12:30 1009 29.8 838 24.75 -3.2 26.3 62 -9.4 15.1 0 0
12:31 1009 29.8 838 24.75 -3.2 26.3 63 -9.2 15.5 0 0
12:32 1009 29.8 838 24.75 -3.1 26.4 63 -9.3 15.3 0 0
12:33 1009 29.8 838 24.75 -3.1 26.4 63 -9.2 15.4 0 0
12:34 1009 29.8 838 24.75 -3.1 26.4 62 -9.4 15 0 0
12:35 1009 29.8 838 24.75 -3.2 26.3 63 -9.3 15.3 0 0
12:36 1009 29.8 838 24.75 -3.2 26.2 63 -9.3 15.3 0 0
12:37 1009 29.8 838 24.75 -3.3 26.1 63 -9.4 15 0 0
12:38 1009 29.8 838 24.75 -3.3 26.1 63 -9.4 15.1 0 0
12:39 1009 29.8 838 24.75 -3.2 26.3 62 -9.5 14.9 0 0
12:40 1009 29.8 838 24.75 -3.1 26.4 62 -9.5 14.9 0 0
12:41 1009 29.8 838 24.75 -3.1 26.5 62 -9.3 15.3 0 0
12:42 1009 29.8 838 24.75 -3.1 26.5 62 -9.4 15 0 0
12:43 1009 29.8 838 24.75 -3.1 26.4 62 -9.4 15.1 0 0
12:44 1009 29.8 838 24.75 -3.1 26.5 61 -9.5 14.9 0 0
12:45 1009 29.8 838 24.75 -3.1 26.5 62 -9.4 15.1 0 0
12:46 1009 29.8 838 24.75 -3.1 26.5 62 -9.4 15.1 0 0
12:47 1009 29.8 838 24.75 -3.1 26.4 61 -9.5 14.8 0 0
12:48 1009 29.8 838 24.75 -3.1 26.4 63 -9.1 15.5 0 0
12:49 1009 29.8 838 24.75 -3.2 26.2 63 -9.4 15.1 0 0
12:50 1009 29.8 838 24.75 -3.2 26.3 62 -9.6 14.8 0 0
12:51 1009 29.8 838 24.75 -3.1 26.3 62 -9.4 15.1 0 0
12:52 1009 29.8 838 24.75 -3.1 26.3 62 -9.4 15.1 0 0
12:53 1009 29.8 838 24.75 -3.2 26.3 63 -9.2 15.4 0 0
12:54 1009 29.8 838 24.75 -3.2 26.3 62 -9.6 14.8 0 0
12:55 1009 29.8 838 24.75 -3.1 26.4 61 -9.6 14.6 0 0
12:56 1009 29.8 838 24.75 -3.1 26.4 62 -9.4 15 0 0
12:57 1009 29.8 838 24.75 -3.1 26.4 62 -9.5 14.9 0 0
12:58 1009 29.8 838 24.75 -3.2 26.3 61 -9.6 14.6 0 0
12:59 1009 29.8 838 24.75 -3.1 26.3 62 -9.5 14.9 0 0
13:00 1009 29.8 838 24.75 -3.2 26.3 62 -9.5 14.9 0 0
13:01 1009 29.8 838 24.75 -3.2 26.2 61 -9.7 14.6 0 0
13:02 1009 29.8 838 24.75 -3.2 26.3 62 -9.6 14.8 0 0
13:03 1009 29.8 838 24.75 -3.2 26.3 60 -9.8 14.3 0 0
13:04 1009 29.8 838 24.75 -3.2 26.3 61 -9.6 14.7 0 0
13:05 1009 29.8 838 24.75 -3.2 26.2 61 -9.6 14.6 0 0
13:06 1009 29.8 838 24.75 -3.3 26 60 -10 14 0 0
13:07 1009 29.8 838 24.75 -3.3 26.1 60 -9.9 14.2 0 0
13:08 1009 29.8 838 24.75 -3.2 26.2 61 -9.6 14.7 0 0
13:09 1009 29.8 838 24.75 -3.2 26.3 60 -9.8 14.3 0 0
13:10 1009 29.8 838 24.75 -3.1 26.4 61 -9.7 14.6 0 0
13:11 1009 29.8 838 24.75 -3.1 26.5 61 -9.5 14.9 0 0
13:12 1009 29.8 838 24.75 -3 26.5 60 -9.7 14.5 0 0
13:13 1009 29.8 838 24.75 -3 26.6 61 -9.4 15 0 0
13:14 1009 29.8 838 24.75 -3.1 26.5 61 -9.6 14.7 0 0
13:15 1009 29.8 838 24.75 -3.1 26.5 64 -9 15.7 0 0
13:16 1009 29.8 838 24.75 -3.1 26.4 61 -9.5 14.9 0 0
13:17 1009 29.8 838 24.75 -3.1 26.4 61 -9.5 14.8 0 0
13:18 1009 29.8 838 24.75 -3.1 26.5 61 -9.6 14.7 0 0
13:19 1009 29.8 838 24.75 -3 26.5 63 -9.1 15.6 0 0
13:20 1009 29.8 838 24.75 -3.1 26.5 62 -9.4 15.1 0 0
13:21 1009 29.8 838 24.75 -3 26.7 61 -9.5 14.8 0 0
13:22 1009 29.8 838 24.75 -2.8 27 60 -9.6 14.7 0 0
13:23 1009 29.8 838 24.75 -2.7 27.2 61 -9.1 15.6 0 0
13:24 1009 29.8 838 24.75 -2.6 27.3 61 -9.1 15.6 0 0
13:25 1009 29.8 838 24.75 -2.5 27.4 59 -9.5 15 0 0
13:26 1009 29.8 838 24.75 -2.4 27.6 61 -9 15.7 0 0
13:27 1009 29.8 838 24.75 -2.4 27.6 59 -9.3 15.2 0 0
13:28 1009 29.8 838 24.75 -2.4 27.7 58 -9.5 14.9 0 0
13:29 1009 29.8 838 24.75 -2.3 27.8 57 -9.7 14.5 0 0
13:30 1009 29.8 838 24.75 -2.3 27.9 58 -9.4 15.1 0 0
13:31 1009 29.8 838 24.75 -2.3 27.9 59 -9.2 15.5 0 0
13:32 1009 29.8 838 24.75 -2.3 27.8 58 -9.6 14.8 0 0
13:33 1009 29.8 838 24.75 -2.3 27.9 57 -9.7 14.5 0 0
13:34 1009 29.8 838 24.75 -2.3 27.9 57 -9.6 14.7 0 0
13:35 1009 29.8 838 24.75 -2.3 27.9 57 -9.6 14.7 0 0
13:36 1009 29.8 838 24.75 -2.3 27.9 55 -10 13.9 0 0
13:37 1009 29.8 838 24.75 -2.3 27.9 58 -9.5 14.8 0 0
13:38 1009 29.8 838 24.75 -2.3 27.9 56 -9.8 14.3 0 0
13:39 1009 29.8 838 24.75 -2.2 28 56 -9.8 14.3 0 0
13:40 1009 29.8 838 24.75 -2.2 28 57 -9.7 14.6 0 0
13:41 1009 29.8 838 24.75 -2.2 28 55 -10.1 13.7 0 0
13:42 1009 29.8 838 24.75 -2.2 28 56 -9.9 14.2 0 0
13:43 1009 29.8 838 24.75 -2.2 28 56 -9.9 14.2 0 0
13:44 1009 29.8 838 24.75 -2.2 28 56 -9.8 14.4 0 0
13:45 1009 29.8 838 24.75 -2.3 27.9 56 -10 14 0 0
13:46 1009 29.8 838 24.75 -2.3 27.9 56 -10 14 0 0
13:47 1009 29.8 838 24.75 -2.3 27.8 56 -10.1 13.9 0 0
13:48 1009 29.8 838 24.75 -2.3 27.8 56 -9.9 14.2 0 0
13:49 1009 29.8 838 24.75 -2.4 27.7 55 -10.3 13.4 0 0
13:50 1009 29.8 838 24.75 -2.4 27.7 55 -10.2 13.6 0 0
13:51 1009 29.8 838 24.75 -2.4 27.6 56 -10.2 13.7 0 0
13:52 1009 29.8 838 24.75 -2.5 27.5 53 -10.7 12.7 0 0
13:53 1009 29.8 838 24.75 -2.5 27.5 52 -11.1 12.1 0 0
13:54 1009 29.8 838 24.75 -2.5 27.5 53 -10.9 12.4 0 0
13:55 1009 29.8 838 24.75 -2.5 27.5 52 -11 12.2 0 0
13:56 1009 29.8 838 24.75 -2.5 27.5 52 -11 12.2 0 0
13:57 1009 29.8 838 24.75 -2.5 27.5 53 -10.8 12.5 0 0
13:58 1009 29.8 838 24.75 -2.5 27.4 53 -10.8 12.6 0 0
13:59 1009 29.8 838 24.75 -2.6 27.4 53 -11 12.2 0 0
14:00 1009 29.8 838 24.75 -2.6 27.3 54 -10.6 12.9 0 0
14:01 1009 29.8 838 24.75 -2.7 27.2 52 -11.3 11.7 0 0
14:02 1009 29.8 838 24.75 -2.6 27.3 50 -11.8 10.8 0 0
14:03 1009 29.8 838 24.75 -2.6 27.3 53 -11 12.3 0 0
14:04 1009 29.8 838 24.75 -2.7 27.1 53 -11 12.3 0 0
14:05 1009 29.8 838 24.75 -2.8 27 54 -10.9 12.3 0 0
14:06 1009 29.8 838 24.75 -2.8 26.9 53 -11.1 12 0 0
14:07 1009 29.8 838 24.75 -2.8 26.9 53 -11.1 12 0 0
14:08 1009 29.8 838 24.75 -2.8 26.9 51 -11.5 11.2 0 0
14:09 1009 29.8 838 24.75 -2.8 27 51 -11.5 11.3 0 0
14:10 1009 29.8 838 24.75 -2.8 27 54 -10.8 12.5 0 0
14:11 1009 29.8 838 24.75 -2.8 27.1 50 -11.9 10.7 0 0
14:12 1009 29.8 838 24.75 -2.7 27.1 52 -11.3 11.6 0 0
14:13 1009 29.8 838 24.75 -2.7 27.1 52 -11.3 11.6 0 0
14:14 1009 29.8 838 24.75 -2.8 27 53 -11.1 12 0 0
14:15 1009 29.8 838 24.75 -2.8 26.9 53 -11.1 11.9 0 0
14:16 1009 29.8 838 24.75 -2.8 26.9 52 -11.5 11.4 0 0
14:17 1009 29.8 838 24.75 -2.8 26.9 50 -11.8 10.7 0 0
14:18 1009 29.8 838 24.75 -2.8 27 51 -11.6 11.1 0 0
14:19 1009 29.8 838 24.75 -2.8 26.9 52 -11.3 11.7 0 0
14:20 1009 29.8 838 24.75 -2.9 26.8 52 -11.5 11.4 0 0
14:21 1009 29.8 838 24.75 -2.9 26.7 52 -11.6 11.2 0 0
14:22 1009 29.8 838 24.75 -2.9 26.8 53 -11.2 11.8 0 0
14:23 1009 29.8 838 24.75 -3 26.6 54 -11 12.2 0 0
14:24 1009 29.8 838 24.75 -3.1 26.5 52 -11.6 11.1 0 0
14:25 1009 29.8 839 24.78 -3.1 26.5 52 -11.5 11.3 0 0
14:26 1009 29.8 839 24.78 -3 26.6 51 -11.7 11 0 0
14:27 1009 29.8 839 24.78 -2.9 26.7 53 -11.3 11.6 0 0
14:28 1009 29.8 839 24.78 -2.9 26.8 51 -11.6 11.1 0 0
14:29 1009 29.8 839 24.78 -2.9 26.7 50 -11.8 10.7 0 0
14:30 1009 29.8 839 24.78 -3 26.7 52 -11.5 11.3 0 0
14:31 1009 29.8 839 24.78 -3 26.5 52 -11.6 11.1 0 0
14:32 1009 29.8 839 24.78 -3 26.5 51 -11.7 10.9 0 0
14:33 1009 29.8 839 24.78 -3.1 26.5 52 -11.5 11.3 0 0
14:34 1009 29.8 839 24.78 -3.1 26.4 51 -11.8 10.8 0 0
14:35 1009 29.8 839 24.78 -3.1 26.3 52 -11.7 10.9 0 0
14:36 1009 29.8 839 24.78 -3.1 26.4 51 -11.8 10.8 0 0
14:37 1009 29.8 839 24.78 -3.1 26.4 52 -11.6 11.1 0 0
14:38 1010 29.83 839 24.78 -3.2 26.3 52 -11.8 10.8 0 0
14:39 1010 29.83 839 24.78 -3.2 26.3 52 -11.8 10.8 0 0
14:40 1010 29.83 839 24.78 -3.2 26.2 51 -11.9 10.5 0 0
14:41 1010 29.83 839 24.78 -3.2 26.2 51 -12 10.4 0 0
14:42 1010 29.83 839 24.78 -3.2 26.2 53 -11.5 11.2 0 0
14:43 1010 29.83 839 24.78 -3.3 26.1 53 -11.5 11.3 0 0
14:44 1010 29.83 839 24.78 -3.4 26 53 -11.6 11.1 0 0
14:45 1010 29.83 839 24.78 -3.4 25.8 54 -11.5 11.3 0 0
14:46 1010 29.83 839 24.78 -3.5 25.7 55 -11.4 11.6 0 0
14:47 1010 29.83 839 24.78 -3.6 25.5 52 -12.1 10.3 0 0
14:48 1010 29.83 839 24.78 -3.6 25.6 52 -12.1 10.3 0 0
14:49 1010 29.83 839 24.78 -3.6 25.6 52 -12 10.5 0 0
14:50 1010 29.83 839 24.78 -3.7 25.4 53 -11.9 10.6 0 0
14:51 1010 29.83 839 24.78 -3.8 25.2 53 -12 10.4 0 0
14:52 1010 29.83 839 24.78 -3.8 25.2 52 -12.2 10 0 0
14:53 1010 29.83 839 24.78 -3.8 25.1 52 -12.2 10.1 0 0
14:54 1010 29.83 839 24.78 -3.8 25.1 52 -12.4 9.7 0 0
14:55 1010 29.83 839 24.78 -3.8 25.2 51 -12.6 9.3 0 0
14:56 1010 29.83 839 24.78 -3.7 25.3 51 -12.5 9.4 0 0
14:57 1010 29.83 839 24.78 -3.7 25.3 51 -12.4 9.6 0 0
14:58 1010 29.83 839 24.78 -3.8 25.2 52 -12.3 9.9 0 0
14:59 1010 29.83 839 24.78 -3.9 24.9 53 -12.2 10 0 0
15:00 1010 29.83 839 24.78 -4 24.7 53 -12.3 9.9 0 0
15:01 1010 29.83 839 24.78 -4.1 24.7 53 -12.3 9.9 0 0
15:02 1010 29.83 839 24.78 -4.1 24.6 53 -12.3 9.9 0 0
15:03 1010 29.83 839 24.78 -4.2 24.5 53 -12.3 9.9 0 0
15:04 1010 29.83 839 24.78 -4.3 24.3 54 -12.2 10.1 0 0
15:05 1010 29.83 839 24.78 -4.4 24.1 54 -12.4 9.7 0 0
15:06 1010 29.83 839 24.78 -4.4 24.1 53 -12.5 9.5 0 0
15:07 1010 29.83 839 24.78 -4.3 24.2 53 -12.6 9.4 0 0
15:08 1010 29.83 839 24.78 -4.3 24.3 53 -12.4 9.7 0 0
15:09 1010 29.83 839 24.78 -4.3 24.2 54 -12.4 9.7 0 0
15:10 1010 29.83 839 24.78 -4.4 24.1 54 -12.3 9.9 0 0
15:11 1010 29.83 839 24.78 -4.5 24 54 -12.4 9.6 0 0
15:12 1010 29.83 839 24.78 -4.5 24 54 -12.4 9.7 0 0
15:13 1010 29.83 839 24.78 -4.5 23.9 55 -12.3 9.8 0 0
15:14 1010 29.83 839 24.78 -4.5 23.8 54 -12.4 9.7 0 0
15:15 1010 29.83 839 24.78 -4.6 23.8 55 -12.4 9.7 0 0
15:16 1010 29.83 839 24.78 -4.5 23.9 55 -12.2 10 0 0
15:17 1010 29.83 839 24.78 -4.5 23.9 55 -12.3 9.9 0 0
15:18 1010 29.83 839 24.78 -4.4 24.1 55 -12.2 10 0 0
15:19 1010 29.83 839 24.78 -4.3 24.3 54 -12.2 10 0 0
15:20 1010 29.83 839 24.78 -4.2 24.5 54 -12.2 10 0 0
15:21 1010 29.83 839 24.78 -4.1 24.6 54 -12 10.3 0 0
15:22 1010 29.83 839 24.78 -4.1 24.7 54 -12 10.4 0 0
15:23 1010 29.83 839 24.78 -4 24.7 54 -12.1 10.1 0 0
15:24 1010 29.83 839 24.78 -3.9 24.9 53 -12.1 10.3 0 0
15:25 1010 29.83 839 24.78 -3.9 25 54 -12 10.4 0 0
15:26 1010 29.83 839 24.78 -3.9 24.9 53 -12.1 10.3 0 0
15:27 1010 29.83 839 24.78 -3.9 25 54 -12 10.4 0 0
15:28 1010 29.83 839 24.78 -3.9 25 53 -12.1 10.2 0 0
15:29 1010 29.83 839 24.78 -3.8 25.2 53 -12 10.3 0 0
15:30 1010 29.83 839 24.78 -3.8 25.3 53 -12 10.4 0 0
15:31 1010 29.83 839 24.78 -3.8 25.2 53 -12 10.4 0 0
15:32 1010 29.83 839 24.78 -3.7 25.3 53 -11.9 10.6 0 0
15:33 1010 29.83 839 24.78 -3.6 25.4 54 -11.8 10.8 0 0
15:34 1010 29.83 839 24.78 -3.6 25.5 53 -11.8 10.7 0 0
15:35 1010 29.83 839 24.78 -3.6 25.5 53 -11.9 10.6 0 0
15:36 1010 29.83 839 24.78 -3.5 25.6 52 -11.9 10.5 0 0
15:37 1010 29.83 839 24.78 -3.5 25.6 53 -11.8 10.7 0 0
15:38 1010 29.83 839 24.78 -3.5 25.7 52 -12 10.5 0 0
15:39 1010 29.83 839 24.78 -3.5 25.7 53 -11.7 11 0 0
15:40 1010 29.83 839 24.78 -3.5 25.7 51 -12.2 10.1 0 0
15:41 1010 29.83 839 24.78 -3.4 25.8 51 -12.3 9.9 0 0
15:42 1010 29.83 839 24.78 -3.3 26 51 -12 10.4 0 0
15:43 1010 29.83 839 24.78 -3.4 26 52 -12 10.5 0 0
15:44 1010 29.83 839 24.78 -3.4 25.9 51 -12.2 10 0 0
15:45 1010 29.83 839 24.78 -3.4 25.9 52 -11.9 10.6 0 0
15:46 1010 29.83 839 24.78 -3.6 25.6 52 -12.1 10.3 0 0
15:47 1010 29.83 839 24.78 -3.7 25.3 53 -12 10.4 0 0
15:48 1010 29.83 839 24.78 -3.8 25.2 51 -12.5 9.6 0 0
15:49 1010 29.83 839 24.78 -3.8 25.2 52 -12.2 10 0 0
15:50 1010 29.83 839 24.78 -3.8 25.2 51 -12.4 9.6 0 0
15:51 1010 29.83 839 24.78 -3.8 25.1 51 -12.6 9.2 0 0
15:52 1010 29.83 839 24.78 -3.8 25.2 49 -12.9 8.7 0 0
15:53 1010 29.83 839 24.78 -3.7 25.3 51 -12.4 9.8 0 0
15:54 1010 29.83 839 24.78 -3.7 25.3 49 -13 8.7 0 0
15:55 1010 29.83 839 24.78 -3.6 25.5 49 -12.9 8.8 0 0
15:56 1010 29.83 839 24.78 -3.6 25.5 49 -12.9 8.7 0 0
15:57 1010 29.83 839 24.78 -3.7 25.4 48 -13.1 8.4 0 0
15:58 1010 29.83 839 24.78 -3.6 25.4 50 -12.8 9 0 0
15:59 1010 29.83 839 24.78 -3.7 25.3 49 -12.9 8.7 0 0
16:00 1010 29.83 839 24.78 -3.8 25.1 48 -13.2 8.3 0 0
16:01 1010 29.83 839 24.78 -3.8 25.1 49 -13 8.5 0 0
16:02 1010 29.83 839 24.78 -4 24.8 49 -13.1 8.4 0 0
16:03 1010 29.83 839 24.78 -4.1 24.6 49 -13.4 7.9 0 0
16:04 1010 29.83 839 24.78 -4.2 24.5 48 -13.6 7.5 0 0
16:05 1010 29.83 839 24.78 -4.2 24.5 49 -13.4 8 0 0
16:06 1010 29.83 839 24.78 -4.3 24.3 49 -13.4 7.8 0 0
16:07 1010 29.83 839 24.78 -4.3 24.3 49 -13.4 7.9 0 0
16:08 1010 29.83 839 24.78 -4.4 24.1 49 -13.5 7.7 0 0
16:09 1010 29.83 839 24.78 -4.4 24.1 50 -13.3 8 0 0
16:10 1010 29.83 839 24.78 -4.4 24.1 49 -13.5 7.8 0 0
16:11 1010 29.83 839 24.78 -4.4 24.1 49 -13.6 7.5 0 0
16:12 1010 29.83 839 24.78 -4.4 24.1 49 -13.5 7.7 0 0
16:13 1010 29.83 839 24.78 -4.4 24.1 50 -13.4 7.8 0 0
16:14 1010 29.83 839 24.78 -4.4 24.1 50 -13.3 8 0 0
16:15 1010 29.83 839 24.78 -4.5 23.9 50 -13.5 7.7 0 0
16:16 1010 29.83 839 24.78 -4.6 23.8 50 -13.5 7.7 0 0
16:17 1010 29.83 839 24.78 -4.6 23.7 49 -13.6 7.4 0 0
16:18 1010 29.83 839 24.78 -4.6 23.7 50 -13.6 7.5 0 0
16:19 1010 29.83 839 24.78 -4.7 23.6 50 -13.7 7.4 0 0
16:20 1010 29.83 839 24.78 -4.7 23.5 50 -13.7 7.3 0 0
16:21 1010 29.83 839 24.78 -4.8 23.4 50 -13.7 7.3 0 0
16:22 1010 29.83 839 24.78 -4.9 23.3 50 -13.7 7.3 0 0
16:23 1010 29.83 839 24.78 -5 23 51 -13.7 7.3 0 0
16:24 1010 29.83 839 24.78 -5.2 22.6 51 -13.7 7.3 0 0
16:25 1010 29.83 839 24.78 -5.4 22.3 51 -13.9 7 0 0
16:26 1010 29.83 839 24.78 -5.5 22.1 52 -14 6.9 0 0
16:27 1010 29.83 839 24.78 -5.5 22 52 -13.9 7.1 0 0
16:28 1010 29.83 839 24.78 -5.6 22 52 -14 6.7 0 0
16:29 1010 29.83 839 24.78 -5.5 22.1 52 -13.9 6.9 0 0
16:30 1010 29.83 839 24.78 -5.5 22.2 51 -14 6.9 0 0
16:31 1010 29.83 839 24.78 -5.4 22.3 52 -13.9 7 0 0
16:32 1010 29.83 839 24.78 -5.3 22.5 51 -13.9 7 0 0
16:33 1010 29.83 839 24.78 -5.2 22.6 51 -13.9 7 0 0
16:34 1010 29.83 839 24.78 -5.2 22.6 50 -14.2 6.5 0 0
16:35 1010 29.83 839 24.78 -5.1 22.9 50 -13.9 7 0 0
16:36 1010 29.83 839 24.78 -5.1 22.9 51 -13.8 7.1 0 0
16:37 1010 29.83 839 24.78 -5.1 22.8 51 -13.9 7 0 0
16:38 1010 29.83 839 24.78 -5.1 22.8 50 -13.9 7 0 0
16:39 1010 29.83 839 24.78 -5.1 22.8 49 -14.2 6.4 0 0
16:40 1010 29.83 839 24.78 -4.9 23.1 50 -13.9 7 0 0
16:41 1010 29.83 839 24.78 -5 23.1 50 -13.8 7.2 0 0
16:42 1010 29.83 839 24.78 -5.1 22.8 50 -14 6.9 0 0
16:43 1010 29.83 839 24.78 -5.2 22.7 50 -14.2 6.5 0 0
16:44 1010 29.83 839 24.78 -5.2 22.7 50 -14 6.9 0 0
16:45 1010 29.83 839 24.78 -5.3 22.5 51 -14 6.8 0 0
16:46 1010 29.83 839 24.78 -5.3 22.4 50 -14.1 6.6 0 0
16:47 1010 29.83 839 24.78 -5.4 22.3 51 -14.1 6.6 0 0
16:48 1010 29.83 839 24.78 -5.4 22.2 50 -14.3 6.2 0 0
16:49 1010 29.83 839 24.78 -5.4 22.2 50 -14.3 6.3 0 0
16:50 1010 29.83 839 24.78 -5.4 22.2 49 -14.4 6 0 0
16:51 1010 29.83 839 24.78 -5.4 22.3 49 -14.4 6.1 0 0
16:52 1010 29.83 839 24.78 -5.4 22.3 50 -14.3 6.3 0 0
16:53 1010 29.83 839 24.78 -5.4 22.3 50 -14.3 6.3 0 0
16:54 1010 29.83 839 24.78 -5.4 22.2 49 -14.5 6 0 0
16:55 1010 29.83 839 24.78 -5.4 22.3 49 -14.5 6 0 0
16:56 1010 29.83 839 24.78 -5.3 22.5 49 -14.5 6 0 0
16:57 1010 29.83 839 24.78 -5.3 22.5 49 -14.3 6.2 0 0
16:58 1010 29.83 839 24.78 -5.3 22.5 49 -14.4 6.1 0 0
16:59 1010 29.83 839 24.78 -5.3 22.5 48 -14.6 5.7 0 0
17:00 1010 29.83 839 24.78 -5.3 22.5 47 -14.8 5.4 0 0
17:01 1010 29.83 839 24.78 -5.1 22.9 48 -14.5 5.9 0 0
17:02 1010 29.83 839 24.78 -5.2 22.7 49 -14.4 6.1 0 0
17:03 1010 29.83 839 24.78 -5.3 22.4 50 -14.3 6.3 0 0
17:04 1010 29.83 839 24.78 -5.5 22.1 50 -14.4 6 0 0
17:05 1010 29.83 839 24.78 -5.7 21.8 50 -14.6 5.8 0 0
17:06 1009 29.8 839 24.78 -5.7 21.8 50 -14.5 5.9 0 0
17:07 1009 29.8 839 24.78 -5.8 21.6 51 -14.4 6 0 0
17:08 1010 29.83 839 24.78 -5.8 21.5 51 -14.4 6.1 0 0
17:09 1010 29.83 839 24.78 -5.9 21.4 51 -14.5 5.9 0 0
17:10 1010 29.83 839 24.78 -6 21.2 51 -14.6 5.8 0 0
17:11 1010 29.83 839 24.78 -6 21.2 51 -14.6 5.8 0 0
17:12 1010 29.83 839 24.78 -6.1 21 51 -14.7 5.6 0 0
17:13 1010 29.83 839 24.78 -6.2 20.8 51 -14.8 5.4 0 0
17:14 1010 29.83 839 24.78 -6.3 20.8 51 -14.7 5.5 0 0
17:15 1010 29.83 839 24.78 -6.3 20.7 51 -14.8 5.4 0 0
17:16 1010 29.83 839 24.78 -6.3 20.6 51 -14.8 5.3 0 0
17:17 1010 29.83 839 24.78 -6.3 20.8 51 -14.7 5.5 0 0
17:18 1010 29.83 839 24.78 -6.3 20.7 51 -14.8 5.4 0 0
17:19 1010 29.83 839 24.78 -6.2 20.8 51 -14.9 5.2 0 0
17:20 1010 29.83 839 24.78 -6.1 21.1 51 -14.7 5.5 0 0
17:21 1010 29.83 839 24.78 -6.1 21.1 52 -14.5 6 0 0
17:22 1010 29.83 839 24.78 -6.1 21 52 -14.6 5.8 0 0
17:23 1010 29.83 839 24.78 -6 21.2 51 -14.5 5.8 0 0
17:24 1010 29.83 839 24.78 -5.8 21.5 51 -14.3 6.2 0 0
17:25 1010 29.83 839 24.78 -5.8 21.6 50 -14.6 5.6 0 0
17:26 1010 29.83 839 24.78 -5.7 21.7 51 -14.3 6.2 0 0
17:27 1010 29.83 839 24.78 -5.7 21.7 50 -14.7 5.6 0 0
17:28 1010 29.83 839 24.78 -5.5 22.1 51 -14.2 6.4 0 0
17:29 1010 29.83 839 24.78 -5.5 22.1 51 -14.2 6.4 0 0
17:30 1010 29.83 839 24.78 -5.6 22 51 -14.3 6.3 0 0
17:31 1010 29.83 839 24.78 -5.6 21.9 51 -14.3 6.3 0 0
17:32 1010 29.83 839 24.78 -5.6 22 51 -14.1 6.6 0 0
17:33 1010 29.83 839 24.78 -5.6 22 51 -14.1 6.6 0 0
17:34 1010 29.83 839 24.78 -5.7 21.8 51 -14.3 6.3 0 0
17:35 1010 29.83 839 24.78 -5.7 21.7 51 -14.3 6.3 0 0
17:36 1010 29.83 839 24.78 -5.7 21.7 51 -14.3 6.2 0 0
17:37 1010 29.83 839 24.78 -5.6 21.9 51 -14.2 6.4 0 0
17:38 1010 29.83 839 24.78 -5.6 22 52 -14 6.8 0 0
17:39 1010 29.83 839 24.78 -5.5 22.1 51 -14.2 6.5 0 0
17:40 1010 29.83 839 24.78 -5.4 22.2 51 -14.1 6.5 0 0
17:41 1010 29.83 839 24.78 -5.3 22.4 50 -14.1 6.5 0 0
17:42 1010 29.83 839 24.78 -5.1 22.8 50 -14 6.7 0 0
17:43 1010 29.83 839 24.78 -5 23 49 -14.1 6.5 0 0
17:44 1010 29.83 839 24.78 -4.9 23.1 50 -13.7 7.3 0 0
17:45 1010 29.83 839 24.78 -5 23.1 51 -13.6 7.5 0 0
17:46 1010 29.83 839 24.78 -5 23 50 -13.9 6.9 0 0
17:47 1010 29.83 839 24.78 -5 23.1 49 -14 6.7 0 0
17:48 1010 29.83 839 24.78 -4.9 23.1 49 -14.1 6.7 0 0
17:49 1010 29.83 839 24.78 -4.9 23.1 48 -14.3 6.2 0 0
17:50 1010 29.83 839 24.78 -4.9 23.1 51 -13.7 7.4 0 0
17:51 1010 29.83 839 24.78 -5 23 50 -14 6.8 0 0
17:52 1010 29.83 839 24.78 -5.1 22.8 50 -14.1 6.6 0 0
17:53 1010 29.83 839 24.78 -5 23 49 -14.2 6.4 0 0
17:54 1010 29.83 839 24.78 -5 23 49 -14.1 6.6 0 0
17:55 1010 29.83 839 24.78 -5 23 48 -14.5 6 0 0
17:56 1010 29.83 839 24.78 -4.9 23.2 49 -13.9 6.9 0 0
17:57 1010 29.83 839 24.78 -5 23 48 -14.4 6.1 0 0
17:58 1010 29.83 839 24.78 -5.1 22.9 50 -14 6.9 0 0
17:59 1010 29.83 839 24.78 -5.2 22.6 50 -14.2 6.5 0 0
18:00 1010 29.83 839 24.78 -5.3 22.5 48 -14.5 5.9 0 0
18:01 1010 29.83 839 24.78 -5.2 22.6 49 -14.3 6.2 0 0
18:02 1010 29.83 839 24.78 -5.2 22.6 50 -14.1 6.7 0 0
18:03 1010 29.83 839 24.78 -5.3 22.5 49 -14.3 6.3 0 0
18:04 1010 29.83 839 24.78 -5.3 22.4 50 -14.2 6.4 0 0
18:05 1010 29.83 839 24.78 -5.4 22.3 49 -14.5 5.9 0 0
18:06 1010 29.83 839 24.78 -5.4 22.4 48 -14.7 5.6 0 0
18:07 1010 29.83 839 24.78 -5.3 22.5 48 -14.8 5.4 0 0
18:08 1010 29.83 839 24.78 -5.2 22.6 48 -14.6 5.7 0 0
18:09 1010 29.83 839 24.78 -5.2 22.6 47 -14.9 5.2 0 0
18:10 1010 29.83 839 24.78 -5.2 22.6 48 -14.6 5.7 0 0
18:11 1010 29.83 839 24.78 -5.2 22.6 49 -14.5 6 0 0
18:12 1010 29.83 839 24.78 -5.3 22.5 48 -14.7 5.6 0 0
18:13 1010 29.83 839 24.78 -5.3 22.4 48 -14.7 5.6 0 0
18:14 1010 29.83 839 24.78 -5.3 22.4 48 -14.8 5.4 0 0
18:15 1010 29.83 839 24.78 -5.3 22.4 48 -14.6 5.8 0 0
18:16 1010 29.83 839 24.78 -5.4 22.3 49 -14.5 5.9 0 0
18:17 1010 29.83 839 24.78 -5.6 22 50 -14.5 5.8 0 0
18:18 1010 29.83 839 24.78 -5.7 21.7 50 -14.6 5.7 0 0
18:19 1010 29.83 839 24.78 -5.9 21.5 50 -14.6 5.8 0 0
18:20 1010 29.83 839 24.78 -6 21.2 50 -14.8 5.4 0 0
18:21 1010 29.83 839 24.78 -6.1 21.1 50 -14.9 5.1 0 0
18:22 1010 29.83 839 24.78 -6.1 21 50 -14.8 5.3 0 0
18:23 1010 29.83 839 24.78 -6.2 20.8 50 -14.9 5.1 0 0
18:24 1010 29.83 839 24.78 -6.3 20.7 50 -15.1 4.9 0 0
18:25 1010 29.83 839 24.78 -6.3 20.6 51 -14.9 5.3 0 0
18:26 1010 29.83 839 24.78 -6.5 20.3 51 -15.1 4.8 0 0
18:27 1010 29.83 839 24.78 -6.7 20 52 -15 5 0 0
18:28 1010 29.83 839 24.78 -6.9 19.6 53 -15 5 0 0
18:29 1010 29.83 839 24.78 -7.2 19.1 53 -15.2 4.6 0 0
18:30 1010 29.83 839 24.78 -7.4 18.7 53 -15.4 4.4 0 0
18:31 1010 29.83 839 24.78 -7.5 18.5 53 -15.4 4.2 0 0
18:32 1010 29.83 839 24.78 -7.6 18.3 53 -15.6 3.9 0 0
18:33 1010 29.83 839 24.78 -7.5 18.4 53 -15.7 3.8 0 0
18:34 1010 29.83 839 24.78 -7.3 18.8 51 -15.8 3.5 0 0
18:35 1010 29.83 839 24.78 -7 19.4 50 -15.8 3.5 0 0
18:36 1010 29.83 839 24.78 -6.8 19.9 49 -15.8 3.6 0 0
18:37 1010 29.83 839 24.78 -6.6 20.1 49 -15.6 3.8 0 0
18:38 1010 29.83 839 24.78 -6.5 20.2 49 -15.6 3.9 0 0
18:39 1010 29.83 839 24.78 -6.6 20.1 50 -15.4 4.3 0 0
18:40 1010 29.83 839 24.78 -6.8 19.7 50 -15.6 4 0 0
18:41 1010 29.83 839 24.78 -6.9 19.5 50 -15.7 3.7 0 0
18:42 1010 29.83 839 24.78 -6.8 19.8 49 -15.8 3.6 0 0
18:43 1010 29.83 839 24.78 -6.7 20 48 -15.8 3.5 0 0
18:44 1010 29.83 839 24.78 -6.5 20.2 48 -15.8 3.6 0 0
18:45 1009 29.8 839 24.78 -6.4 20.4 48 -15.7 3.8 0 0
18:46 1009 29.8 839 24.78 -6.3 20.6 47 -15.8 3.6 0 0
18:47 1010 29.83 839 24.78 -6.3 20.6 48 -15.6 3.9 0 0
18:48 1010 29.83 839 24.78 -6.4 20.5 48 -15.7 3.8 0 0
18:49 1010 29.83 839 24.78 -6.4 20.5 48 -15.6 3.8 0 0
18:50 1010 29.83 839 24.78 -6.5 20.3 49 -15.6 3.8 0 0
18:51 1010 29.83 839 24.78 -6.5 20.3 49 -15.6 3.9 0 0
18:52 1010 29.83 839 24.78 -6.6 20.2 49 -15.7 3.8 0 0
18:53 1010 29.83 839 24.78 -6.6 20.1 49 -15.7 3.7 0 0
18:54 1010 29.83 839 24.78 -6.6 20.2 49 -15.6 3.9 0 0
18:55 1010 29.83 839 24.78 -6.8 19.7 50 -15.7 3.8 0 0
18:56 1010 29.83 839 24.78 -7.6 18.4 52 -15.8 3.6 0 0
18:57 1010 29.83 839 24.78 -8 17.6 53 -16 3.2 0 0
18:58 1010 29.83 839 24.78 -8 17.5 53 -16.1 3.1 0 0
18:59 1010 29.83 839 24.78 -8 17.7 52 -16.1 3.1 0 0
19:00 1010 29.83 839 24.78 -7.9 17.8 52 -16.2 2.9 0 0
19:01 1010 29.83 839 24.78 -8.2 17.2 53 -16.1 3 0 0
19:02 1010 29.83 839 24.78 -8.5 16.7 54 -16.1 3 0 0
19:03 1010 29.83 839 24.78 -8.6 16.5 55 -16.2 2.9 0 0
19:04 1010 29.83 839 24.78 -8.7 16.3 55 -16.3 2.7 0 0
19:05 1010 29.83 839 24.78 -8.9 16.1 55 -16.3 2.7 0 0
19:06 1010 29.83 839 24.78 -9 15.8 56 -16.3 2.6 0 0
19:07 1010 29.83 839 24.78 -8.9 15.9 55 -16.4 2.4 0 0
19:08 1010 29.83 839 24.78 -8.6 16.4 54 -16.4 2.5 0 0
19:09 1010 29.83 839 24.78 -8.6 16.6 53 -16.5 2.3 0 0
19:10 1010 29.83 839 24.78 -8.8 16.2 55 -16.3 2.7 0 0
19:11 1010 29.83 839 24.78 -9.1 15.7 55 -16.5 2.3 0 0
19:12 1009 29.8 839 24.78 -9.1 15.6 55 -16.5 2.2 0 0
19:13 1010 29.83 839 24.78 -9.2 15.5 56 -16.5 2.4 0 0
19:14 1009 29.8 839 24.78 -8.6 16.5 54 -16.5 2.4 0 0
19:15 1009 29.8 839 24.78 -7.9 17.7 52 -16.2 2.8 0 0
19:16 1010 29.83 839 24.78 -7.7 18.1 52 -16 3.3 0 0
19:17 1010 29.83 839 24.78 -7.7 18.1 52 -15.9 3.4 0 0
19:18 1010 29.83 839 24.78 -7.5 18.5 52 -15.8 3.5 0 0
19:19 1010 29.83 839 24.78 -7.1 19.2 50 -15.8 3.5 0 0
19:20 1010 29.83 839 24.78 -6.7 20 48 -15.8 3.5 0 0
19:21 1010 29.83 839 24.78 -6.2 20.8 47 -15.8 3.6 0 0
19:22 1010 29.83 839 24.78 -5.8 21.5 47 -15.6 4 0 0
19:23 1010 29.83 839 24.78 -5.6 21.9 46 -15.4 4.3 0 0
19:24 1010 29.83 839 24.78 -5.7 21.8 46 -15.5 4.2 0 0
19:25 1010 29.83 839 24.78 -5.8 21.6 46 -15.6 4 0 0
19:26 1010 29.83 839 24.78 -5.9 21.4 46 -15.7 3.8 0 0
19:27 1010 29.83 839 24.78 -5.9 21.5 46 -15.7 3.7 0 0
19:28 1010 29.83 839 24.78 -5.9 21.3 47 -15.6 3.9 0 0
19:29 1010 29.83 839 24.78 -6.2 20.8 48 -15.6 3.9 0 0
19:30 1010 29.83 839 24.78 -6.5 20.3 48 -15.7 3.8 0 0
19:31 1010 29.83 839 24.78 -6.6 20.1 47 -16 3.1 0 0
19:32 1010 29.83 839 24.78 -6.4 20.5 47 -15.8 3.5 0 0
19:33 1010 29.83 839 24.78 -6.1 21 46 -15.9 3.4 0 0
19:34 1010 29.83 839 24.78 -5.9 21.4 46 -15.7 3.7 0 0
19:35 1010 29.83 839 24.78 -5.7 21.7 45 -16 3.3 0 0
19:36 1010 29.83 839 24.78 -5.6 22 44 -16 3.3 0 0
19:37 1010 29.83 839 24.78 -5.5 22.2 44 -15.9 3.5 0 0
19:38 1010 29.83 839 24.78 -5.4 22.2 44 -15.9 3.4 0 0
19:39 1010 29.83 839 24.78 -5.4 22.3 43 -16.2 2.9 0 0
19:40 1009 29.8 839 24.78 -5.3 22.5 43 -16 3.2 0 0
19:41 1009 29.8 839 24.78 -5.3 22.4 44 -15.9 3.4 0 0
19:42 1009 29.8 839 24.78 -5.5 22.2 44 -15.9 3.4 0 0
19:43 1010 29.83 839 24.78 -5.7 21.8 45 -15.8 3.5 0 0
19:44 1010 29.83 839 24.78 -5.9 21.4 45 -16 3.3 0 0
19:45 1010 29.83 839 24.78 -6 21.3 45 -16.1 3.1 0 0
19:46 1009 29.8 839 24.78 -5.8 21.5 45 -16.1 3.1 0 0
19:47 1009 29.8 839 24.78 -5.7 21.7 44 -16.2 2.9 0 0
19:48 1009 29.8 839 24.78 -5.6 22 44 -16.1 3.1 0 0
19:49 1009 29.8 839 24.78 -5.5 22.1 44 -15.8 3.5 0 0
19:50 1009 29.8 839 24.78 -5.6 21.9 45 -15.8 3.5 0 0
19:51 1009 29.8 839 24.78 -5.6 21.8 44 -16.1 3.1 0 0
19:52 1009 29.8 839 24.78 -5.6 21.9 44 -16 3.2 0 0
19:53 1009 29.8 838 24.75 -5.6 21.9 44 -16 3.2 0 0
19:54 1009 29.8 838 24.75 -5.7 21.7 45 -15.9 3.4 0 0
19:55 1009 29.8 838 24.75 -5.9 21.5 45 -16 3.2 0 0
19:56 1009 29.8 838 24.75 -5.9 21.4 45 -15.9 3.3 0 0
19:57 1009 29.8 838 24.75 -6 21.2 47 -15.6 3.9 0 0
19:58 1009 29.8 838 24.75 -6.2 20.8 47 -15.7 3.7 0 0
19:59 1009 29.8 838 24.75 -6.4 20.5 48 -15.8 3.5 0 0
20:00 1009 29.8 838 24.75 -6.6 20.2 48 -15.9 3.4 0 0
20:01 1009 29.8 838 24.75 -6.5 20.2 48 -15.9 3.4 0 0
20:02 1009 29.8 838 24.75 -6.5 20.4 48 -15.8 3.5 0 0
20:03 1009 29.8 838 24.75 -6.4 20.4 48 -15.6 3.9 0 0
20:04 1009 29.8 838 24.75 -6.5 20.4 48 -15.7 3.7 0 0
20:05 1009 29.8 838 24.75 -6.4 20.5 48 -15.8 3.5 0 0
20:06 1009 29.8 838 24.75 -6.2 20.8 48 -15.6 3.9 0 0
20:07 1009 29.8 838 24.75 -6.3 20.7 47 -15.8 3.6 0 0
20:08 1009 29.8 838 24.75 -6.6 20.1 49 -15.7 3.7 0 0
20:09 1009 29.8 838 24.75 -6.8 19.7 50 -15.6 4 0 0
20:10 1009 29.8 838 24.75 -6.9 19.5 50 -15.6 3.9 0 0
20:11 1009 29.8 838 24.75 -6.9 19.5 50 -15.8 3.6 0 0
20:12 1009 29.8 838 24.75 -6.8 19.8 49 -15.7 3.7 0 0
20:13 1009 29.8 838 24.75 -6.8 19.7 49 -15.8 3.5 0 0
20:14 1009 29.8 838 24.75 -6.8 19.8 48 -15.9 3.3 0 0
20:15 1009 29.8 838 24.75 -6.7 20 48 -16 3.2 0 0
20:16 1009 29.8 838 24.75 -6.6 20.1 47 -16.1 3.1 0 0
20:17 1009 29.8 838 24.75 -6.5 20.3 47 -16.1 3.1 0 0
20:18 1009 29.8 838 24.75 -6.5 20.3 47 -16.1 3 0 0
20:19 1009 29.8 838 24.75 -6.5 20.3 46 -16.2 2.9 0 0
20:20 1009 29.8 838 24.75 -6.4 20.4 46 -16.2 2.8 0 0
20:21 1009 29.8 838 24.75 -6.5 20.3 47 -16.1 2.9 0 0
20:22 1009 29.8 838 24.75 -6.7 19.9 48 -16.1 3 0 0
20:23 1009 29.8 838 24.75 -7.1 19.3 48 -16.2 2.8 0 0
20:24 1009 29.8 838 24.75 -7.2 19 49 -16.3 2.7 0 0
20:25 1009 29.8 838 24.75 -7.1 19.2 48 -16.4 2.5 0 0
20:26 1009 29.8 838 24.75 -6.8 19.7 46 -16.5 2.3 0 0
20:27 1009 29.8 838 24.75 -6.5 20.3 46 -16.4 2.4 0 0
20:28 1009 29.8 838 24.75 -6.4 20.5 45 -16.4 2.5 0 0
20:29 1009 29.8 838 24.75 -6.2 20.8 45 -16.4 2.5 0 0
20:30 1009 29.8 838 24.75 -6.1 21 44 -16.5 2.4 0 0
20:31 1009 29.8 838 24.75 -6.1 21.1 44 -16.4 2.4 0 0
20:32 1009 29.8 838 24.75 -6 21.2 44 -16.5 2.4 0 0
20:33 1009 29.8 838 24.75 -5.8 21.5 43 -16.4 2.5 0 0
20:34 1009 29.8 838 24.75 -5.8 21.6 43 -16.4 2.5 0 0
20:35 1009 29.8 838 24.75 -5.8 21.6 43 -16.4 2.4 0 0
20:36 1009 29.8 838 24.75 -6 21.2 44 -16.5 2.3 0 0
20:37 1009 29.8 838 24.75 -6.4 20.5 45 -16.5 2.3 0 0
20:38 1009 29.8 838 24.75 -6.8 19.7 47 -16.2 2.8 0 0
20:39 1009 29.8 838 24.75 -7.1 19.3 49 -16.1 3 0 0
20:40 1009 29.8 838 24.75 -7.3 18.8 52 -15.7 3.7 0 0
20:41 1009 29.8 838 24.75 -7.4 18.8 52 -15.7 3.7 0 0
20:42 1008 29.77 838 24.75 -7.4 18.7 52 -15.7 3.8 0 0
20:43 1008 29.77 838 24.75 -7.4 18.6 52 -15.6 3.8 0 0
20:44 1008 29.77 838 24.75 -7.3 18.8 53 -15.4 4.2 0 0
20:45 1008 29.77 838 24.75 -7.4 18.7 53 -15.4 4.2 0 0
20:46 1008 29.77 838 24.75 -7.3 18.8 52 -15.6 3.9 0 0
20:47 1008 29.77 838 24.75 -7.1 19.1 52 -15.4 4.3 0 0
20:48 1008 29.77 838 24.75 -7.1 19.2 53 -15.2 4.6 0 0
20:49 1008 29.77 838 24.75 -7.1 19.3 53 -15.2 4.6 0 0
20:50 1008 29.77 837 24.72 -7.2 19.1 52 -15.5 4.1 0 0
20:51 1008 29.77 837 24.72 -7.5 18.6 53 -15.5 4.1 0 0
20:52 1008 29.77 837 24.72 -7.6 18.3 53 -15.6 4 0 0
20:53 1008 29.77 837 24.72 -7.6 18.3 53 -15.6 4 0 0
20:54 1008 29.77 837 24.72 -7.5 18.4 54 -15.3 4.4 0 0
20:55 1008 29.77 837 24.72 -7.5 18.5 53 -15.4 4.2 0 0
20:56 1008 29.77 837 24.72 -7.5 18.6 53 -15.5 4.1 0 0
20:57 1008 29.77 837 24.72 -7.5 18.5 53 -15.5 4.2 0 0
20:58 1008 29.77 837 24.72 -7.5 18.6 53 -15.5 4.2 0 0
20:59 1008 29.77 837 24.72 -7.3 18.8 53 -15.5 4.2 0 0
21:00 1008 29.77 837 24.72 -7.2 19 52 -15.4 4.2 0 0
21:01 1008 29.77 837 24.72 -7.1 19.3 52 -15.4 4.3 0 0
21:02 1008 29.77 837 24.72 -6.9 19.5 51 -15.4 4.3 0 0
21:03 1008 29.77 837 24.72 -6.9 19.6 51 -15.4 4.3 0 0
21:04 1008 29.77 837 24.72 -6.9 19.7 51 -15.4 4.3 0 0
21:05 1008 29.77 837 24.72 -6.9 19.7 51 -15.5 4.1 0 0
21:06 1008 29.77 837 24.72 -6.8 19.7 51 -15.5 4.1 0 0
21:07 1008 29.77 837 24.72 -6.9 19.6 50 -15.5 4 0 0
21:08 1008 29.77 837 24.72 -6.7 19.9 49 -15.7 3.8 0 0
21:09 1008 29.77 837 24.72 -6.5 20.3 49 -15.6 3.8 0 0
21:10 1008 29.77 837 24.72 -6.3 20.6 48 -15.7 3.8 0 0
21:11 1008 29.77 837 24.72 -6.1 21 47 -15.7 3.7 0 0
21:12 1008 29.77 837 24.72 -5.9 21.4 46 -15.7 3.7 0 0
21:13 1008 29.77 837 24.72 -5.7 21.7 46 -15.6 3.9 0 0
21:14 1008 29.77 837 24.72 -5.8 21.5 46 -15.7 3.8 0 0
21:15 1008 29.77 837 24.72 -6 21.1 47 -15.6 3.9 0 0
21:16 1008 29.77 837 24.72 -6.1 21 47 -15.6 3.8 0 0
21:17 1008 29.77 837 24.72 -6.2 20.8 48 -15.5 4 0 0
21:18 1008 29.77 837 24.72 -6.5 20.3 49 -15.6 4 0 0
21:19 1008 29.77 837 24.72 -6.6 20.1 49 -15.5 4 0 0
21:20 1008 29.77 837 24.72 -6.6 20.1 49 -15.8 3.6 0 0
21:21 1008 29.77 837 24.72 -6.5 20.3 48 -15.8 3.6 0 0
21:22 1008 29.77 837 24.72 -6.5 20.3 48 -15.7 3.7 0 0
21:23 1008 29.77 837 24.72 -6.6 20.2 49 -15.7 3.8 0 0
21:24 1008 29.77 837 24.72 -6.5 20.3 49 -15.6 4 0 0
21:25 1008 29.77 837 24.72 -6.5 20.3 49 -15.5 4.2 0 0
21:26 1008 29.77 837 24.72 -6.7 20 49 -15.6 3.9 0 0
21:27 1008 29.77 837 24.72 -6.8 19.7 50 -15.7 3.8 0 0
21:28 1008 29.77 837 24.72 -6.6 20.2 49 -15.6 3.9 0 0
21:29 1008 29.77 837 24.72 -6.6 20.1 48 -15.8 3.6 0 0
21:30 1008 29.77 837 24.72 -6.9 19.5 50 -15.7 3.7 0 0
21:31 1008 29.77 837 24.72 -7.2 19.1 51 -15.7 3.7 0 0
21:32 1008 29.77 837 24.72 -7.3 18.8 52 -15.7 3.8 0 0
21:33 1008 29.77 837 24.72 -7.5 18.6 52 -15.6 3.8 0 0
21:34 1008 29.77 837 24.72 -7.7 18.2 53 -15.7 3.7 0 0
21:35 1008 29.77 837 24.72 -7.9 17.9 54 -15.7 3.7 0 0
21:36 1007 29.74 837 24.72 -8 17.6 54 -15.8 3.6 0 0
21:37 1008 29.77 837 24.72 -7.9 17.7 54 -15.6 3.9 0 0
21:38 1008 29.77 837 24.72 -7.9 17.8 55 -15.4 4.2 0 0
21:39 1008 29.77 837 24.72 -7.8 18 54 -15.5 4.1 0 0
21:40 1008 29.77 837 24.72 -7.7 18.1 53 -15.7 3.8 0 0
21:41 1007 29.74 837 24.72 -7.9 17.9 55 -15.5 4.1 0 0
21:42 1007 29.74 837 24.72 -7.8 17.9 55 -15.4 4.3 0 0
21:43 1007 29.74 837 24.72 -7.8 17.9 56 -15.2 4.7 0 0
21:44 1007 29.74 837 24.72 -7.7 18.2 56 -15.1 4.9 0 0
21:45 1007 29.74 837 24.72 -7.5 18.5 55 -15 5 0 0
21:46 1007 29.74 837 24.72 -7.5 18.5 54 -15.4 4.3 0 0
21:47 1007 29.74 837 24.72 -7.9 17.7 56 -15.3 4.4 0 0
21:48 1007 29.74 837 24.72 -8.2 17.3 56 -15.6 4 0 0
21:49 1007 29.74 837 24.72 -8.2 17.2 56 -15.5 4.1 0 0
21:50 1007 29.74 837 24.72 -8.2 17.2 56 -15.5 4 0 0
21:51 1007 29.74 837 24.72 -8.2 17.3 56 -15.4 4.2 0 0
21:52 1007 29.74 836 24.69 -8.2 17.3 56 -15.4 4.3 0 0
21:53 1007 29.74 836 24.69 -8.1 17.4 56 -15.5 4.1 0 0
21:54 1007 29.74 836 24.69 -8.1 17.4 55 -15.5 4.1 0 0
21:55 1007 29.74 836 24.69 -8.1 17.5 55 -15.5 4.1 0 0
21:56 1007 29.74 836 24.69 -8 17.6 55 -15.5 4.1 0 0
21:57 1007 29.74 836 24.69 -8 17.6 55 -15.5 4.1 0 0
21:58 1007 29.74 836 24.69 -8 17.6 56 -15.4 4.2 0 0
21:59 1007 29.74 836 24.69 -8 17.6 56 -15.4 4.2 0 0
22:00 1007 29.74 836 24.69 -8 17.6 56 -15.3 4.4 0 0
22:01 1007 29.74 836 24.69 -8 17.5 57 -15.2 4.7 0 0
22:02 1007 29.74 836 24.69 -8.1 17.5 57 -15.1 4.8 0 0
22:03 1007 29.74 836 24.69 -8.2 17.2 59 -14.9 5.2 0 0
22:04 1007 29.74 836 24.69 -8.4 16.8 62 -14.5 5.9 0 0
22:05 1007 29.74 836 24.69 -8.3 17.1 61 -14.6 5.8 0 0
22:06 1007 29.74 836 24.69 -8.1 17.5 59 -14.7 5.6 0 0
22:07 1007 29.74 836 24.69 -8.1 17.4 60 -14.6 5.7 0 0
22:08 1007 29.74 836 24.69 -8.1 17.3 60 -14.7 5.6 0 0
22:09 1007 29.74 836 24.69 -8 17.5 60 -14.6 5.8 0 0
22:10 1007 29.74 836 24.69 -8 17.6 60 -14.5 5.9 0 0
22:11 1007 29.74 836 24.69 -8 17.7 60 -14.4 6.1 0 0
22:12 1007 29.74 836 24.69 -8 17.7 61 -14.3 6.3 0 0
22:13 1007 29.74 836 24.69 -7.9 17.7 61 -14.2 6.5 0 0
22:14 1007 29.74 836 24.69 -7.9 17.9 61 -14.1 6.6 0 0
22:15 1007 29.74 836 24.69 -7.8 17.9 61 -14 6.8 0 0
22:16 1007 29.74 836 24.69 -7.8 17.9 62 -13.9 6.9 0 0
22:17 1007 29.74 836 24.69 -7.8 17.9 62 -13.9 7 0 0
22:18 1007 29.74 836 24.69 -7.9 17.7 63 -13.9 7 0 0
22:19 1007 29.74 836 24.69 -8 17.7 62 -14 6.9 0 0
22:20 1007 29.74 836 24.69 -7.9 17.8 62 -14 6.9 0 0
22:21 1007 29.74 836 24.69 -7.8 17.9 62 -13.8 7.1 0 0
22:22 1007 29.74 836 24.69 -7.8 17.9 63 -13.7 7.3 0 0
22:23 1007 29.74 836 24.69 -7.9 17.9 63 -13.7 7.3 0 0
22:24 1007 29.74 836 24.69 -7.9 17.9 64 -13.6 7.5 0 0
22:25 1007 29.74 836 24.69 -7.9 17.8 64 -13.6 7.5 0 0
22:26 1007 29.74 836 24.69 -7.8 18 64 -13.5 7.6 0 0
22:27 1007 29.74 836 24.69 -7.8 18.1 64 -13.4 7.8 0 0
22:28 1007 29.74 836 24.69 -7.8 18 64 -13.4 7.8 0 0
22:29 1007 29.74 836 24.69 -7.8 18.1 64 -13.3 8 0 0
22:30 1007 29.74 836 24.69 -7.7 18.2 64 -13.3 8.1 0 0
22:31 1007 29.74 836 24.69 -7.6 18.3 63 -13.4 7.8 0 0
22:32 1007 29.74 836 24.69 -7.4 18.6 63 -13.3 8 0 0
22:33 1007 29.74 836 24.69 -7.4 18.8 63 -13.3 8.1 0 0
22:34 1007 29.74 836 24.69 -7.3 18.8 63 -13.2 8.3 0 0
22:35 1007 29.74 836 24.69 -7.3 18.8 63 -13.3 8.1 0 0
22:36 1007 29.74 836 24.69 -7.3 18.8 63 -13.2 8.2 0 0
22:37 1007 29.74 836 24.69 -7.4 18.8 63 -13.2 8.3 0 0
22:38 1007 29.74 836 24.69 -7.4 18.7 63 -13.2 8.2 0 0
22:39 1007 29.74 836 24.69 -7.3 18.9 63 -13.2 8.3 0 0
22:40 1007 29.74 836 24.69 -7.3 18.9 63 -13.1 8.4 0 0
22:41 1007 29.74 836 24.69 -7.3 18.9 63 -13.2 8.3 0 0
22:42 1006 29.71 836 24.69 -7.2 19 63 -13 8.5 0 0
22:43 1006 29.71 836 24.69 -7.2 19.1 63 -13 8.6 0 0
22:44 1006 29.71 836 24.69 -7.2 19.1 63 -13 8.6 0 0
22:45 1006 29.71 836 24.69 -7.2 19.1 63 -13 8.6 0 0
22:46 1006 29.71 836 24.69 -7.2 19.1 64 -12.9 8.8 0 0
22:47 1006 29.71 836 24.69 -7.2 19.1 64 -12.9 8.8 0 0
22:48 1006 29.71 836 24.69 -7.2 19.1 65 -12.7 9.2 0 0
22:49 1006 29.71 836 24.69 -7.2 19 64 -12.8 8.9 0 0
22:50 1006 29.71 835 24.66 -7.2 19.1 63 -13.1 8.4 0 0
22:51 1006 29.71 835 24.66 -7 19.5 62 -13.1 8.5 0 0
22:52 1006 29.71 835 24.66 -6.8 19.7 61 -13 8.5 0 0
22:53 1006 29.71 835 24.66 -6.7 19.9 61 -13.1 8.5 0 0
22:54 1006 29.71 835 24.66 -6.6 20.2 61 -13 8.7 0 0
22:55 1006 29.71 835 24.66 -6.5 20.3 61 -12.8 8.9 0 0
22:56 1006 29.71 835 24.66 -6.5 20.3 62 -12.7 9.1 0 0
22:57 1006 29.71 835 24.66 -6.6 20.2 62 -12.6 9.3 0 0
22:58 1006 29.71 835 24.66 -6.7 20 62 -12.7 9.1 0 0
22:59 1006 29.71 835 24.66 -6.7 20 62 -12.8 8.9 0 0
23:00 1006 29.71 835 24.66 -6.7 20 62 -12.8 8.9 0 0
23:01 1006 29.71 835 24.66 -6.6 20 62 -12.8 8.9 0 0
23:02 1006 29.71 835 24.66 -6.6 20.1 64 -12.4 9.7 0 0
23:03 1006 29.71 835 24.66 -6.8 19.8 64 -12.6 9.3 0 0
23:04 1006 29.71 835 24.66 -6.8 19.7 63 -12.7 9.2 0 0
23:05 1006 29.71 835 24.66 -6.8 19.7 64 -12.6 9.3 0 0
23:06 1006 29.71 835 24.66 -6.8 19.8 63 -12.7 9.1 0 0
23:07 1006 29.71 835 24.66 -6.7 19.9 63 -12.7 9.2 0 0
23:08 1006 29.71 835 24.66 -6.7 19.9 63 -12.6 9.3 0 0
23:09 1006 29.71 835 24.66 -6.7 19.9 63 -12.6 9.3 0 0
23:10 1006 29.71 835 24.66 -6.7 19.9 63 -12.6 9.3 0 0
23:11 1006 29.71 835 24.66 -6.7 20 63 -12.6 9.3 0 0
23:12 1006 29.71 835 24.66 -6.7 20 63 -12.6 9.3 0 0
23:13 1006 29.71 835 24.66 -6.6 20 62 -12.7 9.2 0 0
23:14 1006 29.71 835 24.66 -6.5 20.2 62 -12.6 9.3 0 0
23:15 1006 29.71 835 24.66 -6.5 20.2 63 -12.4 9.7 0 0
23:16 1006 29.71 835 24.66 -6.7 20 65 -12.3 9.9 0 0
23:17 1006 29.71 835 24.66 -6.8 19.8 65 -12.4 9.7 0 0
23:18 1005 29.68 835 24.66 -6.8 19.7 64 -12.5 9.5 0 0
23:19 1005 29.68 835 24.66 -6.8 19.8 63 -12.6 9.3 0 0
23:20 1005 29.68 835 24.66 -6.7 19.9 64 -12.5 9.5 0 0
23:21 1005 29.68 835 24.66 -6.7 20 63 -12.6 9.2 0 0
23:22 1005 29.68 835 24.66 -6.6 20.2 62 -12.6 9.3 0 0
23:23 1005 29.68 835 24.66 -6.5 20.3 62 -12.5 9.4 0 0
23:24 1005 29.68 835 24.66 -6.5 20.3 63 -12.4 9.6 0 0
23:25 1005 29.68 834 24.63 -6.5 20.3 64 -12.3 9.8 0 0
23:26 1005 29.68 835 24.66 -6.5 20.2 64 -12.3 9.8 0 0
23:27 1005 29.68 835 24.66 -6.6 20.1 64 -12.3 9.9 0 0
23:28 1005 29.68 834 24.63 -6.7 20 64 -12.3 9.8 0 0
23:29 1005 29.68 834 24.63 -6.6 20.1 64 -12.4 9.6 0 0
23:30 1005 29.68 834 24.63 -6.5 20.2 63 -12.5 9.5 0 0
23:31 1005 29.68 834 24.63 -6.5 20.4 62 -12.5 9.5 0 0
23:32 1005 29.68 834 24.63 -6.4 20.5 62 -12.5 9.5 0 0
23:33 1005 29.68 834 24.63 -6.3 20.6 62 -12.4 9.7 0 0
23:34 1005 29.68 834 24.63 -6.4 20.6 64 -12.1 10.2 0 0
23:35 1005 29.68 834 24.63 -6.6 20.1 66 -12 10.4 0 0
23:36 1005 29.68 834 24.63 -6.8 19.7 66 -12.2 10.1 0 0
23:37 1005 29.68 834 24.63 -6.8 19.7 65 -12.3 9.9 0 0
23:38 1005 29.68 834 24.63 -6.8 19.7 66 -12.2 10 0 0
23:39 1005 29.68 834 24.63 -6.8 19.7 66 -12.2 10.1 0 0
23:40 1005 29.68 834 24.63 -6.8 19.7 66 -12.1 10.2 0 0
23:41 1005 29.68 834 24.63 -6.9 19.6 67 -12 10.4 0 0
23:42 1005 29.68 834 24.63 -6.9 19.6 66 -12.1 10.2 0 0
23:43 1005 29.68 834 24.63 -6.8 19.7 67 -12 10.3 0 0
23:44 1005 29.68 834 24.63 -6.8 19.8 67 -12 10.4 0 0
23:45 1005 29.68 834 24.63 -6.8 19.8 67 -11.9 10.6 0 0
23:46 1005 29.68 834 24.63 -6.8 19.8 67 -12 10.5 0 0
23:47 1005 29.68 834 24.63 -6.8 19.8 67 -11.9 10.5 0 0
23:48 1005 29.68 834 24.63 -6.7 19.9 66 -12 10.4 0 0
23:49 1005 29.68 834 24.63 -6.6 20.1 65 -12.1 10.2 0 0
23:50 1005 29.68 834 24.63 -6.5 20.3 66 -11.9 10.5 0 0
23:51 1005 29.68 834 24.63 -6.5 20.3 65 -12 10.4 0 0
23:52 1005 29.68 834 24.63 -6.4 20.5 64 -12.1 10.2 0 0
23:53 1005 29.68 834 24.63 -6.3 20.6 65 -11.9 10.5 0 0
23:54 1005 29.68 834 24.63 -6.3 20.6 65 -11.9 10.7 0 0
23:55 1005 29.68 834 24.63 -6.3 20.7 65 -11.8 10.8 0 0
23:56 1005 29.68 834 24.63 -6.3 20.7 66 -11.7 10.9 0 0
23:57 1005 29.68 834 24.63 -6.3 20.7 66 -11.7 10.9 0 0
23:58 1005 29.68 834 24.63 -6.3 20.7 66 -11.6 11.1 0 0
23:59 1005 29.68 834 24.63 -6.3 20.7 65 -11.8 10.7 0 0
24:00 1005 29.68 834 24.63 -6.3 20.7 66 -11.7 11 0 0